Time,TemperatureF,DewpointF,PressureIn,WindDirection,WindDirectionDegrees,WindSpeedMPH,WindSpeedGustMPH,Humidity,HourlyPrecipIn,Conditions,Clouds,dailyrainin,SoftwareType,DateUTC
2013-09-05 00:05:00,55.3,53.0,29.91,SSW,204,0.0,0.0,93,0.00,,,0.00,weatherlink.com 1.10,2013-09-05 04:05:00,
2013-09-05 00:20:00,55.1,53.0,29.91,SSW,204,0.0,0.0,93,0.00,,,0.00,weatherlink.com 1.10,2013-09-05 04:20:00,
2013-09-05 00:35:00,55.0,53.0,29.91,SSW,204,0.0,0.0,93,0.00,,,0.00,weatherlink.com 1.10,2013-09-05 04:35:00,
2013-09-05 00:51:00,54.7,53.0,29.90,SSW,204,0.0,0.0,94,0.00,,,0.00,weatherlink.com 1.10,2013-09-05 04:51:00,
2013-09-05 01:06:00,54.5,53.0,29.90,SSW,204,0.0,0.0,94,0.00,,,0.00,weatherlink.com 1.10,2013-09-05 05:06:00,
2013-09-05 01:21:00,54.3,53.0,29.90,SSW,204,0.0,0.0,94,0.00,,,0.00,weatherlink.com 1.10,2013-09-05 05:21:00,
2013-09-05 01:36:00,54.1,53.0,29.89,SSW,204,0.0,0.0,95,0.00,,,0.00,weatherlink.com 1.10,2013-09-05 05:36:00,
2013-09-05 01:51:00,54.0,53.0,29.89,SSW,204,0.0,0.0,95,0.00,,,0.00,weatherlink.com 1.10,2013-09-05 05:51:00,
2013-09-05 02:06:00,54.1,53.0,29.89,SSW,204,0.0,0.0,96,0.00,,,0.00,weatherlink.com 1.10,2013-09-05 06:06:00,
2013-09-05 02:21:00,54.3,53.0,29.89,SSW,204,0.0,0.0,96,0.00,,,0.00,weatherlink.com 1.10,2013-09-05 06:21:00,
2013-09-05 02:36:00,54.6,54.0,29.89,SSW,204,0.0,0.0,96,0.00,,,0.00,weatherlink.com 1.10,2013-09-05 06:36:00,
2013-09-05 02:51:00,54.9,54.0,29.89,SSW,204,0.0,0.0,96,0.00,,,0.00,weatherlink.com 1.10,2013-09-05 06:51:00,
2013-09-05 03:06:00,55.3,55.0,29.88,SSW,204,0.0,0.0,97,0.00,,,0.00,weatherlink.com 1.10,2013-09-05 07:06:00,
2013-09-05 03:21:00,55.5,54.0,29.88,SSW,204,0.0,0.0,96,0.00,,,0.00,weatherlink.com 1.10,2013-09-05 07:21:00,
2013-09-05 03:36:00,55.7,55.0,29.88,SSW,204,0.0,0.0,96,0.00,,,0.00,weatherlink.com 1.10,2013-09-05 07:36:00,
2013-09-05 03:51:00,55.6,55.0,29.86,SSW,204,0.0,0.0,96,0.00,,,0.00,weatherlink.com 1.10,2013-09-05 07:51:00,
2013-09-05 04:06:00,55.8,55.0,29.87,SSW,204,0.0,0.0,97,0.00,,,0.00,weatherlink.com 1.10,2013-09-05 08:06:00,
2013-09-05 04:21:00,55.7,55.0,29.88,SSW,204,0.0,0.0,96,0.00,,,0.00,weatherlink.com 1.10,2013-09-05 08:21:00,
2013-09-05 04:36:00,55.7,55.0,29.89,SSW,204,0.0,0.0,96,0.00,,,0.00,weatherlink.com 1.10,2013-09-05 08:36:00,
2013-09-05 04:51:00,55.9,55.0,29.89,SSW,204,0.0,0.0,97,0.00,,,0.00,weatherlink.com 1.10,2013-09-05 08:51:00,
2013-09-05 05:06:00,56.0,55.0,29.88,SSW,204,0.0,0.0,97,0.00,,,0.00,weatherlink.com 1.10,2013-09-05 09:06:00,
2013-09-05 05:21:00,56.1,55.0,29.89,SSW,204,0.0,0.0,97,0.00,,,0.00,weatherlink.com 1.10,2013-09-05 09:21:00,
2013-09-05 05:36:00,56.2,55.0,29.89,SSW,204,0.0,0.0,97,0.00,,,0.00,weatherlink.com 1.10,2013-09-05 09:36:00,
2013-09-05 05:51:00,56.0,55.0,29.89,SSW,204,0.0,0.0,96,0.00,,,0.00,weatherlink.com 1.10,2013-09-05 09:51:00,
2013-09-05 06:06:00,55.9,55.0,29.89,SSW,204,0.0,0.0,96,0.00,,,0.00,weatherlink.com 1.10,2013-09-05 10:06:00,
2013-09-05 06:21:00,55.8,55.0,29.89,SSW,204,0.0,0.0,97,0.00,,,0.00,weatherlink.com 1.10,2013-09-05 10:21:00,
2013-09-05 06:36:00,55.8,55.0,29.90,SSW,204,0.0,0.0,97,0.00,,,0.00,weatherlink.com 1.10,2013-09-05 10:36:00,
2013-09-05 06:51:00,56.1,55.0,29.90,SSW,204,0.0,0.0,97,0.00,,,0.00,weatherlink.com 1.10,2013-09-05 10:51:00,
2013-09-05 07:06:00,56.3,56.0,29.91,SSW,204,0.0,0.0,97,0.00,,,0.00,weatherlink.com 1.10,2013-09-05 11:06:00,
2013-09-05 07:21:00,56.8,56.0,29.91,SSW,204,0.0,0.0,98,0.00,,,0.00,weatherlink.com 1.10,2013-09-05 11:21:00,
2013-09-05 07:36:00,57.4,57.0,29.92,SSW,204,0.0,0.0,98,0.00,,,0.00,weatherlink.com 1.10,2013-09-05 11:36:00,
2013-09-05 07:51:00,57.9,57.0,29.92,SSW,204,0.0,0.0,98,0.00,,,0.00,weatherlink.com 1.10,2013-09-05 11:51:00,
2013-09-05 08:06:00,58.4,58.0,29.93,SSW,204,0.0,0.0,98,0.00,,,0.00,weatherlink.com 1.10,2013-09-05 12:06:00,
2013-09-05 08:21:00,58.9,58.0,29.93,SE,134,0.0,0.0,97,0.00,,,0.00,weatherlink.com 1.10,2013-09-05 12:21:00,
2013-09-05 08:36:00,59.7,58.0,29.94,SE,132,0.0,0.0,95,0.00,,,0.00,weatherlink.com 1.10,2013-09-05 12:36:00,
2013-09-05 08:51:00,60.4,58.0,29.95,SSW,194,0.0,0.0,92,0.00,,,0.00,weatherlink.com 1.10,2013-09-05 12:51:00,
2013-09-05 09:06:00,60.6,57.0,29.96,NNE,26,0.0,0.0,87,0.00,,,0.00,weatherlink.com 1.10,2013-09-05 13:06:00,
2013-09-05 09:21:00,61.2,56.0,29.96,WSW,248,0.0,0.0,83,0.00,,,0.00,weatherlink.com 1.10,2013-09-05 13:21:00,
2013-09-05 09:36:00,61.4,57.0,29.96,NNW,345,0.0,0.0,85,0.00,,,0.00,weatherlink.com 1.10,2013-09-05 13:36:00,
2013-09-05 09:51:00,61.5,56.0,29.96,North,349,0.0,0.0,83,0.00,,,0.00,weatherlink.com 1.10,2013-09-05 13:51:00,
2013-09-05 10:06:00,61.3,56.0,29.96,WSW,254,0.0,0.0,82,0.00,,,0.00,weatherlink.com 1.10,2013-09-05 14:06:00,
2013-09-05 10:21:00,61.4,56.0,29.97,SSW,194,0.0,0.0,83,0.00,,,0.00,weatherlink.com 1.10,2013-09-05 14:21:00,
2013-09-05 10:36:00,61.6,56.0,29.97,WSW,244,0.0,0.0,82,0.00,,,0.00,weatherlink.com 1.10,2013-09-05 14:36:00,
2013-09-05 10:51:00,61.3,54.0,29.98,NE,38,0.0,0.0,77,0.00,,,0.00,weatherlink.com 1.10,2013-09-05 14:51:00,
2013-09-05 11:06:00,61.5,54.0,29.98,NE,53,0.0,0.0,77,0.00,,,0.00,weatherlink.com 1.10,2013-09-05 15:06:00,
2013-09-05 11:22:00,64.0,58.0,29.99,WSW,240,0.0,0.0,80,0.00,,,0.00,weatherlink.com 1.10,2013-09-05 15:22:00,
2013-09-05 11:37:00,64.9,58.0,29.98,SW,221,0.0,0.0,77,0.00,,,0.00,weatherlink.com 1.10,2013-09-05 15:37:00,
2013-09-05 11:52:00,67.0,52.0,29.98,ESE,106,0.0,0.0,60,0.00,,,0.00,weatherlink.com 1.10,2013-09-05 15:52:00,
2013-09-05 12:07:00,68.5,53.0,29.98,WNW,290,0.0,0.0,58,0.00,,,0.00,weatherlink.com 1.10,2013-09-05 16:07:00,
2013-09-05 12:22:00,67.1,49.0,29.99,ESE,119,0.0,0.0,53,0.00,,,0.00,weatherlink.com 1.10,2013-09-05 16:22:00,
2013-09-05 12:37:00,66.1,52.0,29.99,West,265,0.0,0.0,60,0.00,,,0.00,weatherlink.com 1.10,2013-09-05 16:37:00,
2013-09-05 12:52:00,66.9,52.0,29.99,West,267,0.0,0.0,60,0.00,,,0.00,weatherlink.com 1.10,2013-09-05 16:52:00,
2013-09-05 13:07:00,67.8,50.0,29.99,NNE,32,0.0,0.0,53,0.00,,,0.00,weatherlink.com 1.10,2013-09-05 17:07:00,
2013-09-05 13:22:00,68.5,51.0,29.99,ESE,103,0.0,0.0,53,0.00,,,0.00,weatherlink.com 1.10,2013-09-05 17:22:00,
2013-09-05 13:37:00,68.1,49.0,29.99,East,93,0.0,0.0,50,0.00,,,0.00,weatherlink.com 1.10,2013-09-05 17:37:00,
2013-09-05 13:52:00,67.4,48.0,29.99,ENE,59,0.0,0.0,50,0.00,,,0.00,weatherlink.com 1.10,2013-09-05 17:52:00,
2013-09-05 14:07:00,66.7,47.0,29.99,ESE,115,0.0,0.0,50,0.00,,,0.00,weatherlink.com 1.10,2013-09-05 18:07:00,
2013-09-05 14:22:00,66.8,50.0,29.99,WSW,246,0.0,0.0,56,0.00,,,0.00,weatherlink.com 1.10,2013-09-05 18:22:00,
2013-09-05 14:37:00,67.3,53.0,29.99,WNW,286,0.0,0.0,61,0.00,,,0.00,weatherlink.com 1.10,2013-09-05 18:37:00,
2013-09-05 14:52:00,67.6,50.0,30.00,West,272,0.0,0.0,53,0.00,,,0.00,weatherlink.com 1.10,2013-09-05 18:52:00,
2013-09-05 15:07:00,67.8,51.0,30.00,WSW,248,0.0,0.0,55,0.00,,,0.00,weatherlink.com 1.10,2013-09-05 19:07:00,
2013-09-05 15:22:00,66.3,50.0,30.00,West,263,0.0,0.0,57,0.00,,,0.00,weatherlink.com 1.10,2013-09-05 19:22:00,
2013-09-05 15:37:00,65.6,50.0,30.01,SSW,205,0.0,0.0,57,0.00,,,0.00,weatherlink.com 1.10,2013-09-05 19:37:00,
2013-09-05 15:52:00,65.3,46.0,30.01,SW,228,0.0,0.0,50,0.00,,,0.00,weatherlink.com 1.10,2013-09-05 19:52:00,
2013-09-05 16:07:00,65.9,48.0,30.01,SE,131,0.0,0.0,52,0.00,,,0.00,weatherlink.com 1.10,2013-09-05 20:07:00,
2013-09-05 16:22:00,65.5,44.0,30.01,NE,34,0.0,0.0,46,0.00,,,0.00,weatherlink.com 1.10,2013-09-05 20:22:00,
2013-09-05 16:37:00,65.0,45.0,30.02,SW,225,0.0,0.0,49,0.00,,,0.00,weatherlink.com 1.10,2013-09-05 20:37:00,
2013-09-05 16:52:00,64.1,41.0,30.02,ENE,58,0.0,0.0,43,0.00,,,0.00,weatherlink.com 1.10,2013-09-05 20:52:00,
2013-09-05 17:07:00,63.0,45.0,30.03,WSW,241,0.0,0.0,52,0.00,,,0.00,weatherlink.com 1.10,2013-09-05 21:07:00,
2013-09-05 17:22:00,62.3,42.0,30.03,WSW,248,0.0,0.0,48,0.00,,,0.00,weatherlink.com 1.10,2013-09-05 21:22:00,
2013-09-05 17:37:00,62.1,44.0,30.04,WSW,238,0.0,0.0,52,0.00,,,0.00,weatherlink.com 1.10,2013-09-05 21:37:00,
2013-09-05 17:52:00,61.0,45.0,30.04,NE,40,0.0,0.0,57,0.00,,,0.00,weatherlink.com 1.10,2013-09-05 21:52:00,
2013-09-05 18:07:00,60.2,47.0,30.05,SW,235,0.0,0.0,62,0.00,,,0.00,weatherlink.com 1.10,2013-09-05 22:07:00,
2013-09-05 18:22:00,59.8,47.0,30.05,WNW,288,0.0,0.0,62,0.00,,,0.00,weatherlink.com 1.10,2013-09-05 22:22:00,
2013-09-05 18:37:00,58.9,47.0,30.06,ENE,63,0.0,0.0,64,0.00,,,0.00,weatherlink.com 1.10,2013-09-05 22:37:00,
2013-09-05 18:52:00,57.5,46.0,30.06,ENE,63,0.0,0.0,66,0.00,,,0.00,weatherlink.com 1.10,2013-09-05 22:52:00,
2013-09-05 19:07:00,56.2,47.0,30.07,ENE,63,0.0,0.0,70,0.00,,,0.00,weatherlink.com 1.10,2013-09-05 23:07:00,
2013-09-05 19:22:00,54.8,47.0,30.07,ENE,63,0.0,0.0,74,0.00,,,0.00,weatherlink.com 1.10,2013-09-05 23:22:00,
2013-09-05 19:38:00,53.6,47.0,30.07,ENE,63,0.0,0.0,79,0.00,,,0.00,weatherlink.com 1.10,2013-09-05 23:38:00,
2013-09-05 19:52:00,52.9,47.0,30.08,ENE,63,0.0,0.0,81,0.00,,,0.00,weatherlink.com 1.10,2013-09-05 23:52:00,
2013-09-05 20:07:00,51.8,47.0,30.08,ENE,63,0.0,0.0,84,0.00,,,0.00,weatherlink.com 1.10,2013-09-06 00:07:00,
2013-09-05 20:22:00,51.3,47.0,30.09,ENE,63,0.0,0.0,85,0.00,,,0.00,weatherlink.com 1.10,2013-09-06 00:22:00,
2013-09-05 20:37:00,51.0,47.0,30.10,ENE,63,0.0,0.0,87,0.00,,,0.00,weatherlink.com 1.10,2013-09-06 00:37:00,
2013-09-05 20:53:00,50.6,47.0,30.11,ENE,63,0.0,0.0,87,0.00,,,0.00,weatherlink.com 1.10,2013-09-06 00:53:00,
2013-09-05 21:08:00,50.0,47.0,30.11,ENE,63,0.0,0.0,88,0.00,,,0.00,weatherlink.com 1.10,2013-09-06 01:08:00,
2013-09-05 21:23:00,49.3,46.0,30.12,ENE,63,0.0,0.0,88,0.00,,,0.00,weatherlink.com 1.10,2013-09-06 01:23:00,
2013-09-05 21:38:00,48.7,46.0,30.12,ENE,63,0.0,0.0,90,0.00,,,0.00,weatherlink.com 1.10,2013-09-06 01:38:00,
2013-09-05 21:53:00,48.3,46.0,30.13,ENE,63,0.0,0.0,90,0.00,,,0.00,weatherlink.com 1.10,2013-09-06 01:53:00,
2013-09-05 22:08:00,48.0,46.0,30.13,ENE,63,0.0,0.0,91,0.00,,,0.00,weatherlink.com 1.10,2013-09-06 02:08:00,
2013-09-05 22:23:00,47.8,46.0,30.14,ENE,63,0.0,0.0,92,0.00,,,0.00,weatherlink.com 1.10,2013-09-06 02:23:00,
2013-09-05 22:38:00,47.5,45.0,30.15,ENE,63,0.0,0.0,91,0.00,,,0.00,weatherlink.com 1.10,2013-09-06 02:38:00,
2013-09-05 22:53:00,47.2,45.0,30.15,ENE,63,0.0,0.0,91,0.00,,,0.00,weatherlink.com 1.10,2013-09-06 02:53:00,
2013-09-05 23:08:00,46.8,44.0,30.15,ENE,63,0.0,0.0,91,0.00,,,0.00,weatherlink.com 1.10,2013-09-06 03:08:00,
2013-09-05 23:23:00,46.4,44.0,30.16,ENE,63,0.0,0.0,90,0.00,,,0.00,weatherlink.com 1.10,2013-09-06 03:23:00,
2013-09-05 23:38:00,46.1,43.0,30.17,ENE,63,0.0,0.0,89,0.00,,,0.00,weatherlink.com 1.10,2013-09-06 03:38:00,
2013-09-05 23:53:00,45.8,43.0,30.17,ENE,63,0.0,0.0,91,0.00,,,0.00,weatherlink.com 1.10,2013-09-06 03:53:00,